createdAt,value
2023-08-09T00:09:54.277Z,13.26
2023-08-09T00:29:54.191Z,13.14
2023-08-09T00:49:54.283Z,13.01
2023-08-09T01:09:54.684Z,13.09
2023-08-09T01:29:54.217Z,13.12
2023-08-09T01:49:54.939Z,13.14
2023-08-09T02:09:54.364Z,13.14
2023-08-09T02:29:54.286Z,13.13
2023-08-09T02:49:54.423Z,13.11
2023-08-09T03:09:54.460Z,13.15
2023-08-09T03:29:54.483Z,13.26
2023-08-09T03:49:54.493Z,13.36
2023-08-09T04:09:54.357Z,13.44
2023-08-09T04:29:54.514Z,13.56
2023-08-09T04:49:54.542Z,13.6
2023-08-09T05:09:54.560Z,13.68
2023-08-09T05:29:54.609Z,13.8
2023-08-09T05:49:54.496Z,14.01
2023-08-09T06:09:54.758Z,14.28
2023-08-09T06:29:54.583Z,14.4
2023-08-09T06:49:54.732Z,14.34
2023-08-09T07:09:54.798Z,15
2023-08-09T07:29:54.755Z,14.95
2023-08-09T07:49:54.846Z,14.99
2023-08-09T08:09:54.857Z,15.33
2023-08-09T08:29:54.862Z,15.53
2023-08-09T08:49:54.965Z,15.78
2023-08-09T09:09:55.051Z,16.07
2023-08-09T09:29:54.986Z,16.38
2023-08-09T09:49:54.984Z,16.83
2023-08-09T10:09:54.992Z,17.03
2023-08-09T10:29:55.043Z,18.59
2023-08-09T10:49:55.711Z,20.4
2023-08-09T11:09:55.045Z,22.38
2023-08-09T11:29:55.133Z,21.24
2023-08-09T11:49:55.206Z,22.44
2023-08-09T12:09:55.507Z,21.59
2023-08-09T12:29:55.261Z,23.23
2023-08-09T12:49:55.243Z,24.97
2023-08-09T13:09:56.566Z,26.28
2023-08-09T13:29:55.336Z,23.86
2023-08-09T13:49:55.432Z,26.14
2023-08-09T14:09:55.342Z,25.35
2023-08-09T14:29:57.596Z,22.95
2023-08-09T14:49:55.446Z,23.15
2023-08-09T15:09:55.505Z,22.69
2023-08-09T15:29:55.617Z,22.34
2023-08-09T15:49:55.457Z,21.56
2023-08-09T16:09:55.548Z,20.9
2023-08-09T16:29:55.692Z,20.4
2023-08-09T16:49:55.574Z,19.9
2023-08-09T17:09:55.849Z,19.43
2023-08-09T17:29:56.818Z,19.01
2023-08-09T17:49:55.548Z,18.55
2023-08-09T18:09:55.591Z,17.98
2023-08-09T18:29:56.450Z,17.24
2023-08-09T18:49:55.787Z,16.36
2023-08-09T19:09:55.889Z,15.61
2023-08-09T19:49:55.877Z,14.41
2023-08-09T20:09:55.809Z,13.81
2023-08-09T20:29:55.976Z,13.19
2023-08-09T20:49:56.060Z,12.69
2023-08-09T21:09:55.949Z,12.3
2023-08-09T21:29:55.970Z,11.99
2023-08-09T21:49:56.086Z,11.62
2023-08-09T22:09:56.106Z,11.32
2023-08-09T22:29:56.086Z,11.05
2023-08-09T22:49:56.074Z,10.78
2023-08-09T23:09:56.266Z,10.55
2023-08-09T23:29:57.689Z,10.33
2023-08-09T23:49:56.293Z,10.13
